createdAt,value
2018-12-02T00:01:53.507Z,9.20
2018-12-02T00:04:22.482Z,8.53
2018-12-02T00:06:51.084Z,7.17
2018-12-02T00:09:39.335Z,8.33
2018-12-02T00:12:27.002Z,7.27
2018-12-02T00:18:44.008Z,7.80
2018-12-02T00:21:12.739Z,8.40
2018-12-02T00:24:00.993Z,7.00
2018-12-02T00:35:36.785Z,8.13
2018-12-02T00:41:15.276Z,7.73
2018-12-02T00:44:03.442Z,6.97
2018-12-02T00:46:32.865Z,7.43
2018-12-02T00:49:02.123Z,6.87
2018-12-02T00:51:50.610Z,7.43
2018-12-02T00:54:19.877Z,7.73
2018-12-02T00:56:49.075Z,7.23
2018-12-02T01:02:25.101Z,6.87
2018-12-02T01:05:16.875Z,7.30
2018-12-02T01:07:45.794Z,7.00
2018-12-02T01:10:34.314Z,7.70
2018-12-02T01:13:24.347Z,8.60
2018-12-02T01:15:53.633Z,7.73
2018-12-02T01:19:01.018Z,8.00
2018-12-02T01:21:31.619Z,7.67
2018-12-02T01:23:59.012Z,7.83
2018-12-02T01:26:47.502Z,7.93
2018-12-02T01:29:16.447Z,7.70
2018-12-02T01:31:45.439Z,7.03
2018-12-02T01:34:14.300Z,6.80
2018-12-02T01:37:02.802Z,7.87
2018-12-02T01:39:31.758Z,7.03
2018-12-02T01:42:20.222Z,7.03
2018-12-02T01:44:49.704Z,6.80
2018-12-02T01:47:18.574Z,6.20
2018-12-02T01:49:49.680Z,5.70
2018-12-02T01:52:38.159Z,5.70
2018-12-02T01:55:08.704Z,5.97
2018-12-02T01:57:40.182Z,5.23
2018-12-02T02:00:29.054Z,5.27
2018-12-02T02:03:00.630Z,4.80
2018-12-02T02:05:29.865Z,5.20
2018-12-02T02:08:18.525Z,5.20
2018-12-02T02:10:51.864Z,5.73
2018-12-02T02:13:18.877Z,5.07
2018-12-02T02:16:07.034Z,5.27
2018-12-02T02:18:36.328Z,4.73
2018-12-02T02:21:05.692Z,5.47
2018-12-02T02:23:34.584Z,6.00
2018-12-02T02:26:23.078Z,5.70
2018-12-02T02:29:11.273Z,6.27
2018-12-02T02:31:40.259Z,5.90
2018-12-02T02:34:31.447Z,5.43
2018-12-02T02:37:00.405Z,5.03
2018-12-02T02:39:32.244Z,5.27
2018-12-02T02:42:20.685Z,4.83
2018-12-02T02:44:49.554Z,4.60
2018-12-02T02:47:18.432Z,4.83
2018-12-02T02:49:47.254Z,4.10
2018-12-02T02:52:36.051Z,5.03
2018-12-02T02:55:04.965Z,4.83
2018-12-02T02:57:33.909Z,5.47
2018-12-02T03:00:22.299Z,5.10
2018-12-02T03:02:51.245Z,5.73
2018-12-02T03:05:20.143Z,6.37
2018-12-02T03:07:49.026Z,6.87
2018-12-02T03:10:37.517Z,6.80
2018-12-02T03:13:07.168Z,7.83
2018-12-02T03:15:40.536Z,6.70
2018-12-02T03:18:29.023Z,6.70
2018-12-02T03:20:57.944Z,7.53
2018-12-02T03:23:26.869Z,7.07
2018-12-02T03:26:15.312Z,7.63
2018-12-02T03:28:44.246Z,6.97
2018-12-02T03:31:13.200Z,7.40
2018-12-02T03:34:01.399Z,7.03
2018-12-02T03:36:30.382Z,6.90
2018-12-02T03:38:59.290Z,7.23
2018-12-02T03:41:28.213Z,6.77
2018-12-02T03:44:18.913Z,7.13
2018-12-02T03:46:47.856Z,7.67
2018-12-02T03:49:16.775Z,6.93
2018-12-02T03:54:56.060Z,6.40
2018-12-02T03:57:44.244Z,6.87
2018-12-02T04:00:16.682Z,6.43
2018-12-02T04:02:45.539Z,6.90
2018-12-02T04:05:34.002Z,6.77
2018-12-02T04:08:02.949Z,7.60
2018-12-02T04:10:31.959Z,6.10
2018-12-02T04:13:01.893Z,7.53
2018-12-02T04:15:52.703Z,6.70
2018-12-02T04:18:21.836Z,7.27
2018-12-02T04:20:50.754Z,6.87
2018-12-02T04:23:39.238Z,7.63
2018-12-02T04:26:08.452Z,6.10
2018-12-02T04:28:37.394Z,6.43
2018-12-02T04:31:09.467Z,6.93
2018-12-02T04:33:57.923Z,5.60
2018-12-02T04:36:27.275Z,5.67
2018-12-02T04:38:56.185Z,5.57
2018-12-02T04:41:25.135Z,6.57
2018-12-02T04:44:13.647Z,5.53
2018-12-02T04:46:42.696Z,6.27
2018-12-02T04:49:13.920Z,6.23
2018-12-02T04:51:42.785Z,7.13
2018-12-02T04:54:31.343Z,6.90
2018-12-02T04:57:00.322Z,6.47
2018-12-02T04:59:29.229Z,7.70
2018-12-02T05:01:58.201Z,7.63
2018-12-02T05:04:46.738Z,7.73
2018-12-02T05:07:17.473Z,7.43
2018-12-02T05:09:46.354Z,7.57
2018-12-02T05:12:34.837Z,7.10
2018-12-02T05:15:23.085Z,6.83
2018-12-02T05:18:11.253Z,6.50
2018-12-02T05:20:40.178Z,6.57
2018-12-02T05:23:09.076Z,6.70
2018-12-02T05:26:00.305Z,6.87
2018-12-02T05:28:29.631Z,6.00
2018-12-02T05:30:58.594Z,6.33
2018-12-02T05:33:47.070Z,5.63
2018-12-02T05:36:16.090Z,5.60
2018-12-02T05:38:44.953Z,5.13
2018-12-02T05:41:13.882Z,4.77
2018-12-02T05:44:02.340Z,5.03
2018-12-02T05:46:51.456Z,4.97
2018-12-02T05:49:19.287Z,5.03
2018-12-02T05:52:07.376Z,4.67
2018-12-02T05:54:36.335Z,4.60
2018-12-02T05:57:06.902Z,3.97
2018-12-02T06:00:14.654Z,3.93
2018-12-02T06:05:20.413Z,4.30
2018-12-02T06:08:08.583Z,4.90
2018-12-02T06:11:00.583Z,4.90
2018-12-02T06:13:48.078Z,4.13
2018-12-02T06:16:17.098Z,4.57
2018-12-02T06:18:45.995Z,4.27
2018-12-02T06:21:34.458Z,4.63
2018-12-02T06:24:03.743Z,3.97
2018-12-02T06:26:32.636Z,4.53
2018-12-02T06:29:01.577Z,4.40
2018-12-02T06:31:58.985Z,4.10
2018-12-02T06:34:27.852Z,4.00
2018-12-02T06:37:16.355Z,3.97
2018-12-02T06:39:45.304Z,4.20
2018-12-02T06:42:16.171Z,4.00
2018-12-02T06:44:43.132Z,4.10
2018-12-02T06:47:54.991Z,4.47
2018-12-02T06:50:41.824Z,3.80
2018-12-02T06:53:10.737Z,4.17
2018-12-02T06:56:14.348Z,3.90
2018-12-02T06:59:05.673Z,3.90
2018-12-02T07:02:14.855Z,3.93
2018-12-02T07:04:44.721Z,4.20
2018-12-02T07:07:14.028Z,4.53
2018-12-02T07:10:05.093Z,4.60
2018-12-02T07:12:53.289Z,3.97
2018-12-02T07:15:23.800Z,4.23
2018-12-02T07:18:14.420Z,4.80
2018-12-02T07:20:49.930Z,4.30
2018-12-02T07:23:57.944Z,4.57
2018-12-02T07:29:28.936Z,4.63
2018-12-02T07:32:23.788Z,5.10
2018-12-02T07:34:55.202Z,4.40
2018-12-02T07:37:25.314Z,4.13
2018-12-02T07:40:33.017Z,4.33
2018-12-02T07:43:40.201Z,4.33
2018-12-02T07:46:09.746Z,4.33
2018-12-02T07:49:17.458Z,4.50
2018-12-02T07:51:46.384Z,4.50
2018-12-02T07:54:15.531Z,5.00
2018-12-02T07:56:44.812Z,4.77
2018-12-02T07:59:33.286Z,4.27
2018-12-02T08:02:02.465Z,4.43
2018-12-02T08:04:33.787Z,4.07
2018-12-02T08:07:02.802Z,3.90
2018-12-02T08:09:51.322Z,3.93
2018-12-02T08:12:20.393Z,3.60
2018-12-02T08:15:08.558Z,9.67
2018-12-02T08:17:37.587Z,3.13
2018-12-02T08:20:09.058Z,2.80
2018-12-02T08:22:59.313Z,3.40
2018-12-02T08:25:28.231Z,2.27
2018-12-02T08:31:08.795Z,2.13
2018-12-02T08:33:40.192Z,2.00
2018-12-02T08:36:28.563Z,2.47
2018-12-02T08:39:21.977Z,2.17
2018-12-02T08:42:13.148Z,2.10
2018-12-02T08:45:00.978Z,2.23
2018-12-02T08:47:49.140Z,2.90
2018-12-02T08:50:23.292Z,2.30
2018-12-02T08:52:57.143Z,2.40
2018-12-02T08:55:42.236Z,2.30
2018-12-02T08:58:14.027Z,12.30
2018-12-02T09:00:55.171Z,2.47
2018-12-02T09:03:36.024Z,3.13
2018-12-02T09:06:05.155Z,3.23
2018-12-02T09:12:04.536Z,3.00
2018-12-02T09:17:40.386Z,3.17
2018-12-02T09:20:35.100Z,3.20
2018-12-02T09:23:25.652Z,3.27
2018-12-02T09:25:54.660Z,3.10
2018-12-02T09:28:43.220Z,2.80
2018-12-02T09:31:12.169Z,2.80
2018-12-02T09:34:00.902Z,2.83
2018-12-02T09:36:51.832Z,2.63
2018-12-02T09:39:21.021Z,2.50
2018-12-02T09:42:43.791Z,2.20
2018-12-02T09:48:43.627Z,2.10
2018-12-02T09:51:33.348Z,1.87
2018-12-02T09:57:09.585Z,1.70
2018-12-02T10:05:20.097Z,2.00
2018-12-02T10:08:08.244Z,2.20
2018-12-02T10:10:56.418Z,2.10
2018-12-02T10:13:25.379Z,2.00
2018-12-02T10:19:29.092Z,2.23
2018-12-02T10:28:31.539Z,2.10
2018-12-02T10:31:15.046Z,1.83
2018-12-02T10:34:03.386Z,2.17
2018-12-02T10:36:59.395Z,2.00
2018-12-02T10:39:25.386Z,2.03
2018-12-02T10:42:15.159Z,2.33
2018-12-02T10:45:03.651Z,2.50
2018-12-02T10:47:37.831Z,2.50
2018-12-02T10:50:31.073Z,2.50
2018-12-02T10:53:20.077Z,2.60
2018-12-02T10:56:01.214Z,3.03
2018-12-02T10:58:34.403Z,2.60
2018-12-02T11:01:24.709Z,2.57
2018-12-02T11:03:52.939Z,2.67
2018-12-02T11:06:41.787Z,2.50
2018-12-02T11:09:12.994Z,2.50
2018-12-02T11:12:01.465Z,2.20
2018-12-02T11:14:47.879Z,2.13
2018-12-02T11:18:17.367Z,2.27
2018-12-02T11:27:40.037Z,2.33
2018-12-02T11:31:07.415Z,2.50
2018-12-02T11:34:05.220Z,2.53
2018-12-02T11:36:53.351Z,2.50
2018-12-02T11:39:22.377Z,2.47
2018-12-02T11:41:51.538Z,2.60
2018-12-02T11:44:22.626Z,2.30
2018-12-02T11:47:11.100Z,2.40
2018-12-02T11:59:06.781Z,2.30
2018-12-02T12:01:54.947Z,2.30
2018-12-02T12:05:02.372Z,2.10
2018-12-02T12:07:31.269Z,2.10
2018-12-02T12:10:20.235Z,1.80
2018-12-02T12:13:11.424Z,1.93
2018-12-02T12:18:54.932Z,1.83
2018-12-02T12:24:34.012Z,1.73
2018-12-02T12:27:20.259Z,1.90
2018-12-02T12:29:51.744Z,1.93
2018-12-02T12:35:31.909Z,1.73
2018-12-02T12:38:22.483Z,1.90
2018-12-02T12:41:31.757Z,1.80
2018-12-02T12:44:07.719Z,1.67
2018-12-02T12:46:37.646Z,1.70
2018-12-02T12:49:27.258Z,1.40
2018-12-02T12:51:57.581Z,1.63
2018-12-02T12:54:46.622Z,1.70
2018-12-02T12:57:18.096Z,1.40
2018-12-02T12:59:47.549Z,1.37
2018-12-02T13:08:11.567Z,1.70
2018-12-02T13:10:41.797Z,1.53
2018-12-02T13:13:30.339Z,1.37
2018-12-02T13:16:03.927Z,1.10
2018-12-02T13:19:09.280Z,1.43
2018-12-02T13:21:38.298Z,1.07
2018-12-02T13:24:08.989Z,1.37
2018-12-02T13:26:38.060Z,1.10
2018-12-02T13:29:26.574Z,1.10
2018-12-02T13:34:46.264Z,1.40
2018-12-02T13:37:34.563Z,1.37
2018-12-02T13:40:29.208Z,1.50
2018-12-02T13:43:32.998Z,1.20
2018-12-02T13:46:21.235Z,1.17
2018-12-02T13:48:51.285Z,1.00
2018-12-02T13:51:38.831Z,1.10
2018-12-02T13:54:48.896Z,1.00
2018-12-02T13:57:58.642Z,1.00
2018-12-02T14:00:31.360Z,1.03
2018-12-02T14:03:19.847Z,1.10
2018-12-02T14:05:49.506Z,0.80
2018-12-02T14:08:23.592Z,0.90
2018-12-02T14:11:14.212Z,0.67
2018-12-02T14:13:46.344Z,0.57
2018-12-02T14:16:56.499Z,0.60
2018-12-02T14:19:47.826Z,0.97
2018-12-02T14:22:24.376Z,0.93
2018-12-02T14:25:14.439Z,0.70
2018-12-02T14:27:45.835Z,0.67
2018-12-02T14:30:38.498Z,0.80
2018-12-02T14:33:26.605Z,0.70
2018-12-02T14:36:03.512Z,0.80
2018-12-02T14:38:32.806Z,0.87
2018-12-02T14:44:14.597Z,1.00
2018-12-02T14:46:43.542Z,0.70
2018-12-02T14:49:16.326Z,1.10
2018-12-02T14:52:04.820Z,0.80
2018-12-02T14:54:40.055Z,0.70
2018-12-02T14:57:30.633Z,0.90
2018-12-02T15:00:19.145Z,1.00
2018-12-02T15:03:07.538Z,0.80
2018-12-02T15:05:43.643Z,0.80
2018-12-02T15:11:23.244Z,0.87
2018-12-02T15:14:11.142Z,0.70
2018-12-02T15:16:41.266Z,0.83
2018-12-02T15:19:51.444Z,0.80
2018-12-02T15:22:39.694Z,0.90
2018-12-02T15:25:29.230Z,0.60
2018-12-02T15:28:03.041Z,1.30
2018-12-02T15:30:31.970Z,2.23
2018-12-02T15:36:29.284Z,0.90
2018-12-02T15:39:20.116Z,0.90
2018-12-02T15:42:10.556Z,0.93
2018-12-02T15:44:55.853Z,1.50
2018-12-02T15:47:25.566Z,1.20
2018-12-02T15:50:25.999Z,1.00
2018-12-02T15:55:43.188Z,1.00
2018-12-02T15:58:31.383Z,1.10
2018-12-02T16:01:03.501Z,1.00
2018-12-02T16:06:46.616Z,0.80
2018-12-02T16:09:19.302Z,0.90
2018-12-02T16:11:48.707Z,1.00
2018-12-02T16:14:37.255Z,0.67
2018-12-02T16:20:51.718Z,1.10
2018-12-02T16:23:22.098Z,1.00
2018-12-02T16:26:10.769Z,0.80
2018-12-02T16:28:41.613Z,1.13
2018-12-02T16:34:24.313Z,0.90
2018-12-02T16:37:21.796Z,1.10
2018-12-02T16:43:00.927Z,1.10
2018-12-02T16:45:29.867Z,1.30
2018-12-02T16:48:18.332Z,1.50
2018-12-02T16:50:56.496Z,1.30
2018-12-02T16:53:46.453Z,1.30
2018-12-02T16:56:17.062Z,1.07
2018-12-02T16:59:29.951Z,1.03
2018-12-02T17:02:05.321Z,1.20
2018-12-02T17:04:54.317Z,1.20
2018-12-02T17:07:23.290Z,1.00
2018-12-02T17:09:53.898Z,1.30
2018-12-02T17:12:22.434Z,1.30
2018-12-02T17:15:32.090Z,1.13
2018-12-02T17:18:22.364Z,1.20
2018-12-02T17:21:05.393Z,1.10
2018-12-02T17:23:28.885Z,1.40
2018-12-02T17:29:09.289Z,1.10
2018-12-02T17:31:59.118Z,1.30
2018-12-02T17:34:52.638Z,1.40
2018-12-02T17:37:43.106Z,1.37
2018-12-02T17:40:22.808Z,2.23
2018-12-02T17:43:33.298Z,1.47
2018-12-02T17:46:21.775Z,1.47
2018-12-02T17:49:10.034Z,1.47
2018-12-02T17:51:38.993Z,1.53
2018-12-02T17:54:08.039Z,1.77
2018-12-02T17:56:37.472Z,1.50
2018-12-02T17:59:28.515Z,1.50
2018-12-02T18:01:57.452Z,1.60
2018-12-02T18:04:26.846Z,1.80
2018-12-02T18:07:34.231Z,1.60
2018-12-02T18:15:56.973Z,1.80
2018-12-02T18:18:45.188Z,1.80
2018-12-02T18:21:18.388Z,1.40
2018-12-02T18:24:07.238Z,1.63
2018-12-02T18:29:45.947Z,1.83
2018-12-02T18:32:14.889Z,1.70
2018-12-02T18:35:22.606Z,1.77
2018-12-02T18:37:55.286Z,1.87
2018-12-02T18:40:24.248Z,1.93
2018-12-02T18:42:53.665Z,2.13
2018-12-02T18:45:42.475Z,1.87
2018-12-02T18:51:02.090Z,2.33
2018-12-02T18:53:55.184Z,2.30
2018-12-02T18:58:58.359Z,2.90
2018-12-02T19:01:46.711Z,2.30
2018-12-02T19:04:34.939Z,2.90
2018-12-02T19:07:03.917Z,3.10
2018-12-02T19:09:32.866Z,2.77
2018-12-02T19:12:21.365Z,3.20
2018-12-02T19:14:50.705Z,3.73
2018-12-02T19:20:24.785Z,3.37
2018-12-02T19:22:57.791Z,3.80
2018-12-02T19:25:31.174Z,4.17
2018-12-02T19:28:21.807Z,4.50
2018-12-02T19:31:10.126Z,4.20
2018-12-02T19:34:00.834Z,3.93
2018-12-02T19:37:08.266Z,4.00
2018-12-02T19:39:37.272Z,4.03
2018-12-02T19:42:27.611Z,3.90
2018-12-02T19:45:36.415Z,4.00
2018-12-02T19:48:28.476Z,4.07
2018-12-02T19:51:18.827Z,4.30
2018-12-02T19:54:13.447Z,3.97
2018-12-02T19:56:51.105Z,3.73
2018-12-02T20:03:21.026Z,4.13
2018-12-02T20:05:53.077Z,3.63
2018-12-02T20:08:26.112Z,3.60
2018-12-02T20:10:58.627Z,4.00
2018-12-02T20:13:35.537Z,3.70
2018-12-02T20:16:11.609Z,3.63
2018-12-02T20:18:44.099Z,4.10
2018-12-02T20:21:21.603Z,3.60
2018-12-02T20:24:02.428Z,3.50
2018-12-02T20:26:32.561Z,3.63
2018-12-02T20:29:06.348Z,4.00
2018-12-02T20:31:36.517Z,4.20
2018-12-02T20:34:07.573Z,3.97
2018-12-02T20:36:45.209Z,3.90
2018-12-02T20:39:14.518Z,3.40
2018-12-02T20:41:53.110Z,3.37
2018-12-02T20:44:29.622Z,3.37
2018-12-02T20:47:14.504Z,3.70
2018-12-02T20:49:47.308Z,3.30
2018-12-02T20:52:20.852Z,3.27
2018-12-02T20:54:52.629Z,3.00
2018-12-02T20:57:25.758Z,3.30
2018-12-02T20:59:57.557Z,3.00
2018-12-02T21:02:28.531Z,2.80
2018-12-02T21:04:59.874Z,3.37
2018-12-02T21:07:41.805Z,2.63
2018-12-02T21:10:13.459Z,2.90
2018-12-02T21:12:45.445Z,3.53
2018-12-02T21:15:17.496Z,3.10
2018-12-02T21:17:46.799Z,2.80
2018-12-02T21:20:20.141Z,3.53
2018-12-02T21:22:50.621Z,2.90
2018-12-02T21:25:23.303Z,3.20
2018-12-02T21:27:52.723Z,3.00
2018-12-02T21:30:28.739Z,3.00
2018-12-02T21:33:00.881Z,2.90
2018-12-02T21:35:32.242Z,3.07
2018-12-02T21:38:02.617Z,2.93
2018-12-02T21:40:32.642Z,3.03
2018-12-02T21:43:05.605Z,3.07
2018-12-02T21:45:38.665Z,3.50
2018-12-02T21:48:19.513Z,3.20
2018-12-02T21:50:52.394Z,2.97
2018-12-02T21:53:22.694Z,3.27
2018-12-02T21:55:54.463Z,3.40
2018-12-02T21:58:28.258Z,3.87
2018-12-02T22:01:06.737Z,3.43
2018-12-02T22:03:37.608Z,4.00
2018-12-02T22:06:07.157Z,3.93
2018-12-02T22:08:36.525Z,4.20
2018-12-02T22:11:07.451Z,4.00
2018-12-02T22:13:43.242Z,4.50
2018-12-02T22:16:08.424Z,5.00
2018-12-02T22:18:38.341Z,4.10
2018-12-02T22:21:08.753Z,4.43
2018-12-02T22:23:38.631Z,3.87
2018-12-02T22:26:13.436Z,3.57
2018-12-02T22:28:47.390Z,3.70
2018-12-02T22:31:19.018Z,3.60
2018-12-02T22:33:49.749Z,3.53
2018-12-02T22:36:19.066Z,3.60
2018-12-02T22:38:48.813Z,3.27
2018-12-02T22:41:22.141Z,2.90
2018-12-02T22:43:51.462Z,2.80
2018-12-02T22:46:21.463Z,2.67
2018-12-02T22:48:50.778Z,2.30
2018-12-02T22:51:21.929Z,2.70
2018-12-02T22:53:52.602Z,2.43
2018-12-02T22:56:23.878Z,2.20
2018-12-02T22:58:53.486Z,1.90
2018-12-02T23:01:28.570Z,2.03
2018-12-02T23:03:58.657Z,1.70
2018-12-02T23:06:32.349Z,1.63
2018-12-02T23:09:01.929Z,1.60
2018-12-02T23:11:31.829Z,1.63
2018-12-02T23:14:03.313Z,1.57
2018-12-02T23:16:34.441Z,1.53
2018-12-02T23:19:04.454Z,1.60
2018-12-02T23:21:36.469Z,1.87
2018-12-02T23:24:06.443Z,1.63
2018-12-02T23:26:37.035Z,1.70
2018-12-02T23:29:08.555Z,1.80
2018-12-02T23:31:36.277Z,1.60
2018-12-02T23:34:06.248Z,1.70
2018-12-02T23:36:37.657Z,1.73
2018-12-02T23:39:09.689Z,2.87
2018-12-02T23:41:38.973Z,1.87
2018-12-02T23:44:09.354Z,1.97
2018-12-02T23:46:40.419Z,1.83
2018-12-02T23:49:10.866Z,2.00
2018-12-02T23:51:40.178Z,2.00
2018-12-02T23:54:10.066Z,1.83
2018-12-02T23:56:39.807Z,1.80
2018-12-02T23:59:09.914Z,1.80
